createdAt,value
2019-04-06T00:00:46.351Z,7.80
2019-04-06T00:03:18.001Z,7.80
2019-04-06T00:05:49.272Z,7.70
2019-04-06T00:08:20.822Z,7.60
2019-04-06T00:10:52.178Z,7.60
2019-04-06T00:13:24.050Z,7.50
2019-04-06T00:15:54.995Z,7.50
2019-04-06T00:18:26.569Z,7.40
2019-04-06T00:20:57.882Z,7.30
2019-04-06T00:23:29.476Z,7.20
2019-04-06T00:26:01.061Z,7.20
2019-04-06T00:28:32.088Z,7.10
2019-04-06T00:31:25.229Z,7.00
2019-04-06T00:33:57.322Z,7.00
2019-04-06T00:36:28.848Z,6.90
2019-04-06T00:39:00.513Z,6.80
2019-04-06T00:41:31.900Z,6.80
2019-04-06T00:44:03.319Z,6.80
2019-04-06T00:46:34.273Z,6.70
2019-04-06T00:49:05.526Z,6.70
2019-04-06T00:51:36.931Z,6.70
2019-04-06T00:54:08.510Z,6.60
2019-04-06T00:56:40.108Z,6.60
2019-04-06T00:59:11.838Z,6.50
2019-04-06T01:01:43.396Z,6.50
2019-04-06T01:04:14.991Z,6.40
2019-04-06T01:06:46.345Z,6.40
2019-04-06T01:09:17.361Z,6.30
2019-04-06T01:11:48.948Z,6.20
2019-04-06T01:14:19.939Z,6.20
2019-04-06T01:16:51.864Z,6.20
2019-04-06T01:19:22.890Z,6.10
2019-04-06T01:21:54.281Z,6.00
2019-04-06T01:24:25.554Z,6.00
2019-04-06T01:26:56.705Z,5.90
2019-04-06T01:29:28.292Z,5.90
2019-04-06T01:31:59.312Z,5.90
2019-04-06T01:34:30.721Z,5.90
2019-04-06T01:37:02.395Z,5.80
2019-04-06T01:39:34.384Z,5.80
2019-04-06T01:42:05.998Z,5.80
2019-04-06T01:44:37.294Z,5.70
2019-04-06T01:47:08.845Z,5.70
2019-04-06T01:49:39.856Z,5.60
2019-04-06T01:52:11.510Z,5.60
2019-04-06T01:54:43.374Z,5.50
2019-04-06T01:57:14.674Z,5.50
2019-04-06T01:59:46.243Z,5.40
2019-04-06T02:02:21.588Z,5.30
2019-04-06T02:04:52.863Z,5.30
2019-04-06T02:07:24.219Z,5.30
2019-04-06T02:09:55.183Z,5.30
2019-04-06T02:12:26.874Z,5.20
2019-04-06T02:14:59.058Z,5.10
2019-04-06T02:17:30.328Z,5.10
2019-04-06T02:20:02.236Z,5.10
2019-04-06T02:22:34.070Z,5.00
2019-04-06T02:25:04.931Z,5.00
2019-04-06T02:27:36.026Z,5.00
2019-04-06T02:30:38.218Z,5.00
2019-04-06T02:33:28.364Z,5.00
2019-04-06T02:36:20.827Z,5.00
2019-04-06T02:38:59.665Z,5.00
2019-04-06T02:42:02.207Z,4.90
2019-04-06T02:44:33.479Z,4.90
2019-04-06T02:47:05.214Z,4.80
2019-04-06T02:49:36.636Z,4.70
2019-04-06T02:52:08.200Z,4.70
2019-04-06T02:54:39.863Z,4.60
2019-04-06T02:57:11.431Z,4.60
2019-04-06T02:59:42.779Z,4.60
2019-04-06T03:02:13.996Z,4.60
2019-04-06T03:04:45.523Z,4.50
2019-04-06T03:07:16.904Z,4.50
2019-04-06T03:09:48.470Z,4.40
2019-04-06T03:12:19.496Z,4.30
2019-04-06T03:14:50.482Z,4.30
2019-04-06T03:17:21.466Z,4.20
2019-04-06T03:19:52.803Z,4.10
2019-04-06T03:22:24.508Z,4.10
2019-04-06T03:24:55.810Z,4.10
2019-04-06T03:27:26.791Z,4.00
2019-04-06T03:29:59.336Z,4.00
2019-04-06T03:32:30.640Z,4.00
2019-04-06T03:35:02.550Z,4.00
2019-04-06T03:37:34.502Z,4.00
2019-04-06T03:40:05.882Z,3.90
2019-04-06T03:42:37.486Z,3.90
2019-04-06T03:45:10.721Z,3.90
2019-04-06T03:47:42.245Z,3.90
2019-04-06T03:50:13.511Z,3.80
2019-04-06T03:52:44.704Z,3.80
2019-04-06T03:55:16.015Z,3.70
2019-04-06T03:57:47.475Z,3.60
2019-04-06T04:00:18.958Z,3.60
2019-04-06T04:02:50.278Z,3.50
2019-04-06T04:05:21.795Z,3.50
2019-04-06T04:07:54.006Z,3.50
2019-04-06T04:10:36.491Z,3.50
2019-04-06T04:13:08.350Z,3.50
2019-04-06T04:15:40.015Z,3.50
2019-04-06T04:18:11.174Z,3.40
2019-04-06T04:20:41.877Z,3.40
2019-04-06T04:23:13.407Z,3.40
2019-04-06T04:25:44.933Z,3.40
2019-04-06T04:28:15.911Z,3.30
2019-04-06T04:30:47.800Z,3.20
2019-04-06T04:33:19.178Z,3.20
2019-04-06T04:35:50.774Z,3.10
2019-04-06T04:38:22.029Z,3.10
2019-04-06T04:40:53.996Z,3.10
2019-04-06T04:43:24.918Z,3.10
2019-04-06T04:45:56.439Z,3.10
2019-04-06T04:48:27.696Z,3.10
2019-04-06T04:50:58.386Z,3.10
2019-04-06T04:53:30.429Z,3.10
2019-04-06T04:56:02.179Z,3.00
2019-04-06T04:58:34.025Z,3.00
2019-04-06T05:01:05.357Z,3.00
2019-04-06T05:03:36.614Z,3.10
2019-04-06T05:06:07.589Z,3.00
2019-04-06T05:08:38.865Z,3.00
2019-04-06T05:11:10.500Z,3.10
2019-04-06T05:13:42.039Z,3.10
2019-04-06T05:16:14.545Z,3.00
2019-04-06T05:18:46.207Z,3.00
2019-04-06T05:21:17.580Z,3.10
2019-04-06T05:23:48.862Z,3.10
2019-04-06T05:26:20.123Z,3.20
2019-04-06T05:28:51.389Z,3.20
2019-04-06T05:31:22.924Z,3.20
2019-04-06T05:33:54.985Z,3.20
2019-04-06T05:36:26.239Z,3.20
2019-04-06T05:38:57.185Z,3.30
2019-04-06T05:41:29.258Z,3.40
2019-04-06T05:44:00.938Z,3.40
2019-04-06T05:46:32.494Z,3.40
2019-04-06T05:49:04.200Z,3.50
2019-04-06T05:51:35.909Z,3.50
2019-04-06T05:54:07.816Z,3.60
2019-04-06T05:56:38.917Z,3.60
2019-04-06T05:59:10.924Z,3.80
2019-04-06T06:01:42.602Z,3.80
2019-04-06T06:04:13.870Z,3.80
2019-04-06T06:06:45.432Z,3.80
2019-04-06T06:09:16.942Z,3.80
2019-04-06T06:11:48.679Z,3.90
2019-04-06T06:14:20.806Z,3.90
2019-04-06T06:16:52.237Z,4.00
2019-04-06T06:19:24.350Z,4.00
2019-04-06T06:21:55.685Z,4.00
2019-04-06T06:24:27.278Z,3.90
2019-04-06T06:26:58.894Z,4.00
2019-04-06T06:32:03.296Z,4.10
2019-04-06T06:33:01.716Z,4.20
2019-04-06T06:35:32.771Z,4.20
2019-04-06T06:38:04.417Z,4.30
2019-04-06T06:40:36.283Z,4.50
2019-04-06T06:43:07.932Z,4.50
2019-04-06T06:45:39.305Z,4.70
2019-04-06T06:48:11.370Z,4.90
2019-04-06T06:50:42.407Z,5.00
2019-04-06T06:53:14.127Z,5.10
2019-04-06T06:55:45.823Z,5.10
2019-04-06T06:58:25.375Z,5.20
2019-04-06T07:00:50.042Z,5.30
2019-04-06T07:03:21.873Z,5.30
2019-04-06T07:05:53.275Z,5.40
2019-04-06T07:08:24.584Z,5.50
2019-04-06T07:10:56.367Z,5.60
2019-04-06T07:13:27.775Z,5.90
2019-04-06T07:15:59.921Z,6.00
2019-04-06T07:18:31.370Z,6.00
2019-04-06T07:21:03.111Z,6.10
2019-04-06T07:23:35.325Z,6.10
2019-04-06T07:26:06.929Z,6.20
2019-04-06T07:28:39.411Z,6.40
2019-04-06T07:31:11.190Z,6.60
2019-04-06T07:33:42.650Z,6.60
2019-04-06T07:36:14.052Z,6.80
2019-04-06T07:38:45.204Z,6.90
2019-04-06T07:41:15.662Z,7.10
2019-04-06T07:43:47.527Z,7.10
2019-04-06T07:46:19.549Z,7.20
2019-04-06T07:48:51.278Z,7.30
2019-04-06T07:51:22.656Z,7.50
2019-04-06T07:53:53.991Z,7.70
2019-04-06T07:56:24.922Z,7.90
2019-04-06T07:58:56.456Z,7.90
2019-04-06T08:01:28.171Z,8.20
2019-04-06T08:03:59.499Z,8.40
2019-04-06T08:06:31.684Z,8.50
2019-04-06T08:09:05.615Z,8.60
2019-04-06T08:11:36.719Z,8.70
2019-04-06T08:14:07.983Z,8.80
2019-04-06T08:16:39.056Z,9.00
2019-04-06T08:19:10.368Z,9.20
2019-04-06T08:21:42.323Z,9.40
2019-04-06T08:24:14.155Z,9.50
2019-04-06T08:26:46.292Z,9.70
2019-04-06T08:29:18.291Z,9.80
2019-04-06T08:31:49.644Z,10.00
2019-04-06T08:34:21.600Z,10.10
2019-04-06T08:36:53.264Z,10.20
2019-04-06T08:39:25.820Z,10.40
2019-04-06T08:41:57.364Z,10.50
2019-04-06T08:44:28.998Z,10.70
2019-04-06T08:47:00.669Z,11.00
2019-04-06T08:49:32.288Z,11.20
2019-04-06T08:52:03.575Z,11.30
2019-04-06T08:54:35.369Z,11.50
2019-04-06T08:57:06.814Z,11.60
2019-04-06T08:59:39.062Z,11.70
2019-04-06T09:02:10.068Z,11.80
2019-04-06T09:04:41.956Z,11.80
2019-04-06T09:07:13.044Z,12.00
2019-04-06T09:09:44.407Z,12.10
2019-04-06T09:12:15.401Z,12.20
2019-04-06T09:14:46.131Z,12.30
2019-04-06T09:17:17.548Z,12.40
2019-04-06T09:19:49.304Z,12.60
2019-04-06T09:22:20.944Z,12.60
2019-04-06T09:24:52.313Z,12.70
2019-04-06T09:27:24.861Z,12.80
2019-04-06T09:29:56.551Z,12.90
2019-04-06T09:32:28.477Z,13.00
2019-04-06T09:34:59.707Z,13.10
2019-04-06T09:37:31.512Z,13.10
2019-04-06T09:40:02.812Z,13.20
2019-04-06T09:42:34.212Z,13.40
2019-04-06T09:45:43.003Z,13.50
2019-04-06T09:48:35.389Z,13.60
2019-04-06T09:51:27.594Z,13.60
2019-04-06T09:54:32.589Z,13.80
2019-04-06T09:57:18.779Z,13.80
2019-04-06T10:00:08.315Z,13.90
2019-04-06T10:02:54.764Z,13.90
2019-04-06T10:05:39.805Z,14.00
2019-04-06T10:08:36.269Z,14.20
2019-04-06T10:11:36.326Z,14.20
2019-04-06T10:14:17.384Z,14.40
2019-04-06T10:17:22.725Z,14.50
2019-04-06T10:20:18.753Z,14.90
2019-04-06T10:23:07.538Z,15.10
2019-04-06T10:25:57.570Z,15.10
2019-04-06T10:28:53.898Z,15.30
2019-04-06T10:31:45.681Z,15.20
2019-04-06T10:34:44.747Z,15.40
2019-04-06T10:37:35.287Z,15.80
2019-04-06T10:40:28.198Z,16.10
2019-04-06T10:43:30.582Z,16.00
2019-04-06T10:46:27.010Z,16.20
2019-04-06T10:49:03.641Z,16.60
2019-04-06T10:51:54.199Z,16.60
2019-04-06T10:54:34.013Z,17.40
2019-04-06T10:57:16.493Z,17.40
2019-04-06T11:00:15.507Z,17.70
2019-04-06T11:03:03.859Z,17.90
2019-04-06T11:06:01.378Z,17.40
2019-04-06T11:08:44.353Z,17.50
2019-04-06T11:11:33.179Z,17.90
2019-04-06T11:14:23.709Z,18.60
2019-04-06T11:17:04.669Z,18.80
2019-04-06T11:19:55.048Z,18.70
2019-04-06T11:22:48.988Z,18.60
2019-04-06T11:25:25.269Z,18.80
2019-04-06T11:28:14.141Z,18.60
2019-04-06T11:30:55.905Z,18.10
2019-04-06T11:33:44.390Z,17.80
2019-04-06T11:36:37.283Z,16.80
2019-04-06T11:39:38.461Z,16.70
2019-04-06T11:42:17.333Z,16.90
2019-04-06T11:45:03.281Z,17.60
2019-04-06T11:48:03.154Z,18.70
2019-04-06T11:50:51.730Z,19.70
2019-04-06T11:53:41.897Z,19.10
2019-04-06T11:56:50.387Z,18.70
2019-04-06T11:59:32.642Z,18.20
2019-04-06T12:02:25.204Z,18.00
2019-04-06T12:05:05.541Z,17.80
2019-04-06T12:08:04.020Z,17.70
2019-04-06T12:10:54.377Z,17.70
2019-04-06T12:13:35.412Z,17.60
2019-04-06T12:16:41.171Z,17.80
2019-04-06T12:19:34.391Z,17.90
2019-04-06T12:22:20.439Z,18.00
2019-04-06T12:25:26.073Z,18.10
2019-04-06T12:28:15.718Z,18.50
2019-04-06T12:31:11.969Z,19.10
2019-04-06T12:33:59.420Z,19.30
2019-04-06T12:36:59.511Z,18.80
2019-04-06T12:39:50.953Z,18.20
2019-04-06T12:42:30.799Z,18.30
2019-04-06T12:45:20.991Z,18.40
2019-04-06T12:48:17.345Z,18.20
2019-04-06T12:51:17.191Z,18.10
2019-04-06T12:54:00.067Z,18.00
2019-04-06T12:56:41.600Z,17.60
2019-04-06T12:59:36.081Z,17.40
2019-04-06T13:02:16.416Z,17.40
2019-04-06T13:05:16.663Z,17.30
2019-04-06T13:08:06.675Z,16.40
2019-04-06T13:10:55.332Z,16.30
2019-04-06T13:13:36.380Z,16.40
2019-04-06T13:16:35.689Z,16.10
2019-04-06T13:19:31.943Z,16.30
2019-04-06T13:22:39.471Z,16.40
2019-04-06T13:25:18.833Z,16.50
2019-04-06T13:28:11.966Z,16.60
2019-04-06T13:31:05.343Z,17.20
2019-04-06T13:33:46.584Z,16.80
2019-04-06T13:36:31.214Z,16.90
2019-04-06T13:39:15.560Z,17.40
2019-04-06T13:42:03.432Z,17.10
2019-04-06T13:44:59.012Z,16.90
2019-04-06T13:47:44.534Z,16.50
2019-04-06T13:50:22.414Z,16.70
2019-04-06T13:53:01.750Z,16.70
2019-04-06T13:55:57.561Z,16.90
2019-04-06T14:00:04.438Z,17.60
2019-04-06T14:02:57.995Z,18.10
2019-04-06T14:05:41.661Z,18.00
2019-04-06T14:08:38.040Z,18.20
2019-04-06T14:11:22.129Z,18.50
2019-04-06T14:14:06.011Z,18.60
2019-04-06T14:16:59.692Z,18.00
2019-04-06T14:19:39.577Z,18.40
2019-04-06T14:22:38.656Z,18.10
2019-04-06T14:25:27.140Z,17.80
2019-04-06T14:28:14.274Z,17.40
2019-04-06T14:30:54.406Z,17.50
2019-04-06T14:33:43.656Z,17.50
2019-04-06T14:36:29.494Z,17.50
2019-04-06T14:39:29.664Z,17.40
2019-04-06T14:42:26.072Z,17.20
2019-04-06T14:45:29.016Z,16.90
2019-04-06T14:48:25.540Z,17.20
2019-04-06T14:51:16.318Z,17.20
2019-04-06T14:54:10.183Z,17.70
2019-04-06T14:57:03.092Z,18.30
2019-04-06T15:00:00.089Z,18.80
2019-04-06T15:02:38.270Z,18.70
2019-04-06T15:05:34.653Z,19.20
2019-04-06T15:08:15.521Z,19.60
2019-04-06T15:10:57.571Z,20.10
2019-04-06T15:13:42.054Z,20.60
2019-04-06T15:16:48.190Z,20.20
2019-04-06T15:19:36.035Z,19.90
2019-04-06T15:22:16.041Z,20.40
2019-04-06T15:25:01.470Z,20.40
2019-04-06T15:27:42.026Z,20.20
2019-04-06T15:30:35.651Z,20.30
2019-04-06T15:33:17.936Z,19.80
2019-04-06T15:36:00.615Z,19.10
2019-04-06T15:38:49.101Z,19.00
2019-04-06T15:41:35.842Z,18.60
2019-04-06T15:44:29.568Z,18.20
2019-04-06T15:47:22.971Z,18.00
2019-04-06T15:50:24.526Z,17.90
2019-04-06T15:53:14.371Z,17.80
2019-04-06T15:56:00.239Z,17.70
2019-04-06T15:58:41.722Z,17.60
2019-04-06T16:01:35.031Z,17.50
2019-04-06T16:04:27.429Z,17.60
2019-04-06T16:07:10.507Z,17.50
2019-04-06T16:09:59.923Z,17.40
2019-04-06T16:12:52.599Z,17.40
2019-04-06T16:15:46.676Z,17.40
2019-04-06T16:18:36.418Z,17.40
2019-04-06T16:21:23.728Z,17.40
2019-04-06T16:24:17.054Z,17.40
2019-04-06T16:27:13.343Z,17.30
2019-04-06T16:29:53.966Z,17.20
2019-04-06T16:32:47.351Z,17.30
2019-04-06T16:35:38.399Z,17.40
2019-04-06T16:38:43.842Z,17.30
2019-04-06T16:41:23.482Z,17.20
2019-04-06T16:44:11.995Z,17.30
2019-04-06T16:46:57.080Z,17.30
2019-04-06T16:49:47.603Z,17.30
2019-04-06T16:52:37.245Z,17.30
2019-04-06T16:55:35.656Z,17.30
2019-04-06T16:58:20.311Z,17.20
2019-04-06T17:01:26.154Z,17.20
2019-04-06T17:04:19.211Z,17.20
2019-04-06T17:07:25.192Z,17.20
2019-04-06T17:10:06.846Z,17.00
2019-04-06T17:12:51.393Z,17.10
2019-04-06T17:15:50.242Z,17.10
2019-04-06T17:18:39.973Z,16.90
2019-04-06T17:21:36.205Z,16.90
2019-04-06T17:24:11.752Z,16.70
2019-04-06T17:27:07.886Z,16.60
2019-04-06T17:29:46.568Z,16.50
2019-04-06T17:32:38.201Z,16.60
2019-04-06T17:35:40.505Z,16.70
2019-04-06T17:38:26.060Z,16.70
2019-04-06T17:41:16.074Z,16.20
2019-04-06T17:43:56.783Z,16.10
2019-04-06T17:46:48.155Z,16.10
2019-04-06T17:49:39.165Z,16.00
2019-04-06T17:52:41.467Z,15.80
2019-04-06T17:55:30.461Z,15.70
2019-04-06T17:58:15.347Z,15.50
2019-04-06T18:01:03.796Z,15.40
2019-04-06T18:03:59.677Z,15.20
2019-04-06T18:06:59.068Z,15.00
2019-04-06T18:09:44.734Z,14.90
2019-04-06T18:12:26.416Z,14.80
2019-04-06T18:14:58.619Z,14.70
2019-04-06T18:17:30.016Z,14.60
2019-04-06T18:20:02.265Z,14.50
2019-04-06T18:22:34.310Z,14.50
2019-04-06T18:25:06.408Z,14.50
2019-04-06T18:27:38.461Z,14.40
2019-04-06T18:30:10.294Z,14.30
2019-04-06T18:33:04.663Z,14.30
2019-04-06T18:35:38.342Z,14.20
2019-04-06T18:38:16.099Z,14.10
2019-04-06T18:40:48.438Z,14.00
2019-04-06T18:43:19.807Z,14.00
2019-04-06T18:45:50.635Z,13.80
2019-04-06T18:48:24.766Z,13.80
2019-04-06T18:50:56.874Z,13.70
2019-04-06T18:53:28.038Z,13.60
2019-04-06T18:55:59.419Z,13.60
2019-04-06T18:58:30.882Z,13.60
2019-04-06T19:01:02.487Z,13.50
2019-04-06T19:03:34.646Z,13.40
2019-04-06T19:06:07.099Z,13.30
2019-04-06T19:08:39.567Z,13.20
2019-04-06T19:11:12.610Z,13.20
2019-04-06T19:13:44.714Z,13.10
2019-04-06T19:16:17.365Z,13.10
2019-04-06T19:18:51.272Z,13.00
2019-04-06T19:21:23.292Z,12.90
2019-04-06T19:23:55.150Z,12.80
2019-04-06T19:26:28.831Z,12.70
2019-04-06T19:29:01.013Z,12.70
2019-04-06T19:31:35.619Z,12.60
2019-04-06T19:34:10.535Z,12.60
2019-04-06T19:36:42.487Z,12.50
2019-04-06T19:39:16.275Z,12.50
2019-04-06T19:41:48.210Z,12.40
2019-04-06T19:44:20.720Z,12.30
2019-04-06T19:46:53.665Z,12.30
2019-04-06T19:49:25.509Z,12.20
2019-04-06T19:51:57.233Z,12.20
2019-04-06T19:54:30.054Z,12.10
2019-04-06T19:57:02.515Z,12.10
2019-04-06T19:59:35.021Z,12.00
2019-04-06T20:02:06.624Z,12.00
2019-04-06T20:04:37.907Z,11.90
2019-04-06T20:07:11.432Z,11.80
2019-04-06T20:09:43.495Z,11.80
2019-04-06T20:12:15.025Z,11.70
2019-04-06T20:14:46.511Z,11.70
2019-04-06T20:17:18.701Z,11.70
2019-04-06T20:19:51.945Z,11.60
2019-04-06T20:22:24.195Z,11.60
2019-04-06T20:24:55.925Z,11.50
2019-04-06T20:27:27.723Z,11.50
2019-04-06T20:29:59.874Z,11.50
2019-04-06T20:32:32.931Z,11.40
2019-04-06T20:35:05.281Z,11.40
2019-04-06T20:37:36.280Z,11.30
2019-04-06T20:40:08.874Z,11.30
2019-04-06T20:42:42.247Z,11.30
2019-04-06T20:45:13.973Z,11.30
2019-04-06T20:47:45.897Z,11.20
2019-04-06T20:50:18.212Z,11.10
2019-04-06T20:52:50.845Z,11.10
2019-04-06T20:55:24.325Z,11.10
2019-04-06T20:57:56.224Z,11.10
2019-04-06T21:00:28.023Z,11.10
2019-04-06T21:02:59.988Z,11.00
2019-04-06T21:05:32.979Z,10.90
2019-04-06T21:08:05.876Z,10.90
2019-04-06T21:10:37.492Z,10.80
2019-04-06T21:13:11.170Z,10.80
2019-04-06T21:15:45.087Z,10.80
2019-04-06T21:18:17.794Z,10.70
2019-04-06T21:20:50.730Z,10.70
2019-04-06T21:23:22.918Z,10.60
2019-04-06T21:25:54.976Z,10.60
2019-04-06T21:28:27.429Z,10.50
2019-04-06T21:30:59.688Z,10.50
2019-04-06T21:33:31.743Z,10.40
2019-04-06T21:36:03.593Z,10.40
2019-04-06T21:38:35.074Z,10.30
2019-04-06T21:41:07.024Z,10.30
2019-04-06T21:43:38.376Z,10.20
2019-04-06T21:46:10.756Z,10.10
2019-04-06T21:48:43.164Z,10.00
2019-04-06T21:51:15.899Z,10.00
2019-04-06T21:53:48.007Z,9.90
2019-04-06T21:56:20.151Z,9.90
2019-04-06T21:58:52.508Z,9.80
2019-04-06T22:01:25.480Z,9.70
2019-04-06T22:03:57.649Z,9.70
2019-04-06T22:06:29.392Z,9.70
2019-04-06T22:09:01.592Z,9.60
2019-04-06T22:11:33.411Z,9.60
2019-04-06T22:14:05.636Z,9.60
2019-04-06T22:16:37.167Z,9.60
2019-04-06T22:19:08.241Z,9.60
2019-04-06T22:21:41.296Z,9.60
2019-04-06T22:24:13.751Z,9.60
2019-04-06T22:26:45.296Z,9.60
2019-04-06T22:29:16.231Z,9.60
2019-04-06T22:31:47.108Z,9.60
2019-04-06T22:34:18.417Z,9.60
2019-04-06T22:36:49.385Z,9.60
2019-04-06T22:39:21.367Z,9.60
2019-04-06T22:41:52.961Z,9.50
2019-04-06T22:44:24.409Z,9.50
2019-04-06T22:46:56.001Z,9.50
2019-04-06T22:49:27.219Z,9.50
2019-04-06T22:51:59.420Z,9.40
2019-04-06T22:54:31.292Z,9.50
2019-04-06T22:57:02.790Z,9.50
2019-04-06T22:59:34.675Z,9.50
2019-04-06T23:02:06.718Z,9.50
2019-04-06T23:04:48.576Z,9.50
2019-04-06T23:07:18.964Z,9.50
2019-04-06T23:09:50.331Z,9.40
2019-04-06T23:12:22.157Z,9.30
2019-04-06T23:14:53.834Z,9.40
2019-04-06T23:17:26.057Z,9.30
2019-04-06T23:19:57.182Z,9.30
2019-04-06T23:22:28.917Z,9.30
2019-04-06T23:25:00.761Z,9.30
2019-04-06T23:27:32.023Z,9.20
2019-04-06T23:30:03.094Z,9.20
2019-04-06T23:32:34.665Z,9.20
2019-04-06T23:35:06.027Z,9.10
2019-04-06T23:37:37.257Z,9.10
2019-04-06T23:40:08.972Z,9.00
2019-04-06T23:42:40.501Z,8.90
2019-04-06T23:45:12.900Z,8.90
2019-04-06T23:47:44.440Z,8.90
2019-04-06T23:50:16.914Z,8.90
2019-04-06T23:52:48.328Z,8.80
2019-04-06T23:55:20.013Z,8.90
2019-04-06T23:57:51.078Z,8.80
